createdAt,value
2023-01-05T00:00:27.736Z,991.20
2023-01-05T00:01:27.694Z,991.08
2023-01-05T00:02:27.744Z,991.08
2023-01-05T00:03:27.684Z,991.13
2023-01-05T00:04:27.714Z,991.09
2023-01-05T00:05:27.660Z,991.21
2023-01-05T00:06:27.663Z,991.15
2023-01-05T00:07:27.673Z,991.17
2023-01-05T00:08:32.967Z,991.19
2023-01-05T00:09:29.630Z,991.10
2023-01-05T00:10:27.627Z,991.08
2023-01-05T00:11:27.621Z,991.07
2023-01-05T00:12:27.677Z,991.16
2023-01-05T00:13:27.601Z,991.12
2023-01-05T00:14:27.591Z,991.18
2023-01-05T00:15:27.596Z,991.11
2023-01-05T00:16:27.603Z,991.06
2023-01-05T00:17:27.601Z,991.02
2023-01-05T00:18:27.554Z,991.00
2023-01-05T00:19:28.557Z,990.95
2023-01-05T00:20:27.552Z,991.04
2023-01-05T00:21:27.548Z,990.96
2023-01-05T00:22:27.584Z,990.92
2023-01-05T00:23:27.528Z,990.84
2023-01-05T00:24:27.517Z,991.01
2023-01-05T00:25:27.513Z,990.92
2023-01-05T00:26:27.508Z,990.98
2023-01-05T00:27:27.518Z,990.97
2023-01-05T00:28:27.484Z,991.06
2023-01-05T00:29:27.479Z,991.01
2023-01-05T00:30:27.470Z,991.00
2023-01-05T00:31:27.476Z,990.99
2023-01-05T00:32:27.480Z,991.07
2023-01-05T00:33:27.447Z,991.04
2023-01-05T00:34:27.438Z,991.02
2023-01-05T00:35:27.424Z,991.07
2023-01-05T00:36:27.415Z,991.02
2023-01-05T00:37:27.432Z,991.00
2023-01-05T00:38:27.402Z,991.04
2023-01-05T00:39:27.396Z,991.05
2023-01-05T00:40:27.386Z,991.10
2023-01-05T00:41:27.380Z,991.01
2023-01-05T00:42:27.383Z,991.09
2023-01-05T00:43:28.365Z,991.00
2023-01-05T00:44:27.352Z,991.03
2023-01-05T00:45:27.387Z,991.07
2023-01-05T00:46:27.407Z,991.09
2023-01-05T00:47:27.359Z,991.08
2023-01-05T00:48:27.320Z,991.08
2023-01-05T00:49:27.314Z,991.11
2023-01-05T00:50:27.313Z,991.10
2023-01-05T00:51:27.325Z,991.06
2023-01-05T00:52:27.321Z,991.14
2023-01-05T00:53:27.296Z,991.24
2023-01-05T00:54:27.270Z,991.20
2023-01-05T00:55:27.274Z,991.09
2023-01-05T00:56:27.257Z,991.18
2023-01-05T00:57:27.278Z,991.16
2023-01-05T00:58:27.245Z,991.16
2023-01-05T00:59:27.247Z,991.12
2023-01-05T01:00:27.236Z,991.17
2023-01-05T01:01:27.402Z,991.24
2023-01-05T01:02:27.386Z,991.25
2023-01-05T01:03:27.257Z,991.24
2023-01-05T01:04:27.198Z,991.34
2023-01-05T01:05:27.193Z,991.19
2023-01-05T01:06:27.181Z,991.24
2023-01-05T01:07:27.194Z,991.23
2023-01-05T01:08:27.171Z,991.10
2023-01-05T01:09:27.162Z,991.28
2023-01-05T01:10:27.158Z,991.22
2023-01-05T01:11:27.150Z,991.30
2023-01-05T01:12:27.166Z,991.27
2023-01-05T01:13:27.150Z,991.22
2023-01-05T01:14:27.130Z,991.22
2023-01-05T01:15:27.114Z,991.28
2023-01-05T01:16:27.161Z,991.21
2023-01-05T01:17:27.135Z,991.05
2023-01-05T01:18:27.089Z,991.23
2023-01-05T01:19:27.115Z,991.26
2023-01-05T01:20:27.075Z,991.18
2023-01-05T01:21:27.067Z,991.04
2023-01-05T01:22:27.118Z,991.25
2023-01-05T01:23:27.071Z,991.31
2023-01-05T01:24:27.046Z,991.40
2023-01-05T01:25:27.047Z,991.39
2023-01-05T01:26:27.034Z,991.29
2023-01-05T01:27:27.024Z,991.34
2023-01-05T01:28:27.037Z,991.24
2023-01-05T01:29:27.002Z,991.30
2023-01-05T01:30:27.066Z,991.27
2023-01-05T01:31:27.002Z,991.29
2023-01-05T01:32:26.988Z,991.28
2023-01-05T01:33:26.997Z,991.25
2023-01-05T01:34:26.965Z,991.31
2023-01-05T01:35:26.956Z,991.20
2023-01-05T01:36:26.945Z,991.26
2023-01-05T01:37:26.948Z,991.27
2023-01-05T01:38:26.966Z,991.23
2023-01-05T01:39:26.934Z,991.24
2023-01-05T01:40:26.919Z,991.22
2023-01-05T01:41:26.920Z,991.14
2023-01-05T01:42:26.905Z,991.21
2023-01-05T01:43:26.924Z,991.21
2023-01-05T01:44:26.891Z,991.38
2023-01-05T01:45:26.882Z,991.41
2023-01-05T01:46:26.925Z,991.39
2023-01-05T01:47:26.869Z,991.46
2023-01-05T01:48:26.882Z,991.31
2023-01-05T01:49:26.845Z,991.26
2023-01-05T01:50:26.840Z,991.35
2023-01-05T01:51:26.861Z,991.42
2023-01-05T01:52:26.826Z,991.33
2023-01-05T01:53:26.876Z,991.37
2023-01-05T01:54:26.811Z,991.25
2023-01-05T01:55:26.792Z,991.39
2023-01-05T01:56:26.798Z,991.41
2023-01-05T01:57:26.796Z,991.41
2023-01-05T01:58:26.803Z,991.47
2023-01-05T01:59:26.782Z,991.45
2023-01-05T02:00:26.781Z,991.40
2023-01-05T02:01:26.807Z,991.55
2023-01-05T02:02:26.899Z,991.56
2023-01-05T02:03:26.767Z,991.53
2023-01-05T02:04:26.752Z,991.51
2023-01-05T02:05:26.731Z,991.50
2023-01-05T02:06:26.719Z,991.47
2023-01-05T02:07:26.714Z,991.48
2023-01-05T02:08:26.727Z,991.49
2023-01-05T02:09:26.705Z,991.42
2023-01-05T02:10:26.684Z,991.35
2023-01-05T02:11:26.701Z,991.42
2023-01-05T02:12:26.670Z,991.39
2023-01-05T02:13:31.413Z,991.35
2023-01-05T02:14:28.650Z,991.41
2023-01-05T02:15:26.652Z,991.44
2023-01-05T02:16:26.640Z,991.43
2023-01-05T02:17:26.628Z,991.36
2023-01-05T02:18:26.650Z,991.37
2023-01-05T02:19:26.630Z,991.41
2023-01-05T02:20:26.618Z,991.39
2023-01-05T02:21:26.596Z,991.30
2023-01-05T02:22:26.585Z,991.24
2023-01-05T02:23:26.606Z,991.20
2023-01-05T02:24:26.576Z,991.27
2023-01-05T02:25:26.563Z,991.33
2023-01-05T02:26:26.554Z,991.32
2023-01-05T02:27:26.590Z,991.28
2023-01-05T02:28:26.537Z,991.33
2023-01-05T02:29:26.552Z,991.30
2023-01-05T02:30:26.581Z,991.39
2023-01-05T02:31:26.516Z,991.31
2023-01-05T02:32:26.508Z,991.38
2023-01-05T02:33:26.501Z,991.33
2023-01-05T02:34:26.530Z,991.38
2023-01-05T02:35:26.485Z,991.33
2023-01-05T02:36:28.701Z,991.42
2023-01-05T02:37:27.469Z,991.41
2023-01-05T02:38:26.469Z,991.31
2023-01-05T02:39:26.479Z,991.39
2023-01-05T02:40:26.450Z,991.42
2023-01-05T02:41:26.439Z,991.39
2023-01-05T02:42:26.443Z,991.46
2023-01-05T02:43:26.420Z,991.48
2023-01-05T02:44:26.442Z,991.44
2023-01-05T02:45:26.411Z,991.40
2023-01-05T02:46:26.423Z,991.43
2023-01-05T02:47:26.397Z,991.43
2023-01-05T02:48:26.388Z,991.49
2023-01-05T02:49:26.398Z,991.54
2023-01-05T02:50:26.372Z,991.49
2023-01-05T02:51:26.372Z,991.49
2023-01-05T02:52:26.356Z,991.50
2023-01-05T02:53:26.352Z,991.53
2023-01-05T02:54:26.367Z,991.52
2023-01-05T02:55:26.334Z,991.52
2023-01-05T02:56:26.328Z,991.43
2023-01-05T02:57:26.319Z,991.50
2023-01-05T02:58:26.317Z,991.47
2023-01-05T02:59:26.328Z,991.36
2023-01-05T03:00:26.301Z,991.36
2023-01-05T03:01:26.409Z,991.30
2023-01-05T03:02:26.453Z,991.41
2023-01-05T03:03:26.346Z,991.36
2023-01-05T03:04:26.288Z,991.36
2023-01-05T03:05:26.248Z,991.40
2023-01-05T03:06:26.247Z,991.41
2023-01-05T03:07:26.240Z,991.34
2023-01-05T03:08:32.302Z,991.39
2023-01-05T03:09:28.237Z,991.41
2023-01-05T03:10:27.218Z,991.42
2023-01-05T03:11:26.206Z,991.38
2023-01-05T03:12:26.197Z,991.40
2023-01-05T03:13:26.195Z,991.37
2023-01-05T03:14:26.206Z,991.41
2023-01-05T03:15:26.204Z,991.42
2023-01-05T03:16:26.242Z,991.40
2023-01-05T03:17:26.165Z,991.52
2023-01-05T03:18:26.158Z,991.44
2023-01-05T03:19:26.171Z,991.50
2023-01-05T03:20:26.142Z,991.51
2023-01-05T03:21:26.136Z,991.53
2023-01-05T03:22:26.145Z,991.50
2023-01-05T03:23:26.115Z,991.46
2023-01-05T03:24:26.134Z,991.49
2023-01-05T03:25:26.102Z,991.49
2023-01-05T03:26:26.092Z,991.47
2023-01-05T03:27:26.092Z,991.48
2023-01-05T03:28:26.069Z,991.47
2023-01-05T03:29:26.089Z,991.53
2023-01-05T03:30:26.058Z,991.54
2023-01-05T03:31:26.088Z,991.47
2023-01-05T03:32:30.252Z,991.48
2023-01-05T03:33:27.031Z,991.52
2023-01-05T03:34:26.055Z,991.52
2023-01-05T03:35:26.029Z,991.56
2023-01-05T03:36:26.010Z,991.51
2023-01-05T03:37:26.004Z,991.53
2023-01-05T03:38:26.008Z,991.59
2023-01-05T03:39:26.016Z,991.63
2023-01-05T03:40:25.986Z,991.63
2023-01-05T03:41:25.974Z,991.64
2023-01-05T03:42:25.968Z,991.60
2023-01-05T03:43:25.964Z,991.61
2023-01-05T03:44:25.974Z,991.67
2023-01-05T03:45:25.944Z,991.64
2023-01-05T03:46:25.932Z,991.67
2023-01-05T03:47:25.931Z,991.71
2023-01-05T03:48:25.923Z,991.66
2023-01-05T03:49:25.938Z,991.74
2023-01-05T03:50:25.918Z,991.65
2023-01-05T03:51:25.905Z,991.61
2023-01-05T03:52:25.884Z,991.66
2023-01-05T03:53:25.881Z,991.70
2023-01-05T03:54:25.898Z,991.69
2023-01-05T03:55:25.865Z,991.78
2023-01-05T03:56:25.859Z,991.77
2023-01-05T03:57:25.842Z,991.74
2023-01-05T03:58:25.841Z,991.76
2023-01-05T03:59:25.857Z,991.84
2023-01-05T04:00:25.845Z,991.77
2023-01-05T04:01:25.883Z,991.77
2023-01-05T04:02:25.929Z,991.75
2023-01-05T04:03:31.414Z,991.82
2023-01-05T04:04:27.833Z,991.76
2023-01-05T04:05:25.791Z,991.77
2023-01-05T04:06:25.781Z,991.79
2023-01-05T04:07:25.772Z,991.84
2023-01-05T04:08:25.766Z,991.85
2023-01-05T04:09:25.800Z,991.91
2023-01-05T04:10:25.746Z,991.91
2023-01-05T04:11:25.748Z,991.91
2023-01-05T04:12:25.739Z,991.91
2023-01-05T04:13:25.725Z,991.90
2023-01-05T04:14:25.714Z,991.99
2023-01-05T04:15:25.736Z,991.91
2023-01-05T04:16:25.766Z,991.89
2023-01-05T04:17:25.698Z,991.84
2023-01-05T04:18:25.689Z,991.86
2023-01-05T04:19:25.681Z,991.74
2023-01-05T04:20:25.695Z,991.87
2023-01-05T04:21:25.661Z,991.93
2023-01-05T04:22:27.485Z,991.99
2023-01-05T04:23:26.666Z,991.95
2023-01-05T04:24:25.647Z,992.10
2023-01-05T04:25:25.661Z,992.08
2023-01-05T04:26:25.616Z,992.08
2023-01-05T04:27:25.618Z,992.12
2023-01-05T04:28:25.605Z,992.14
2023-01-05T04:29:25.600Z,992.09
2023-01-05T04:30:25.626Z,992.10
2023-01-05T04:31:25.630Z,992.15
2023-01-05T04:32:25.574Z,992.12
2023-01-05T04:33:25.569Z,992.15
2023-01-05T04:34:25.563Z,992.04
2023-01-05T04:35:25.586Z,992.06
2023-01-05T04:36:25.546Z,992.02
2023-01-05T04:37:25.539Z,992.06
2023-01-05T04:38:25.519Z,992.02
2023-01-05T04:39:26.527Z,992.06
2023-01-05T04:40:25.536Z,992.09
2023-01-05T04:41:25.505Z,992.15
2023-01-05T04:42:25.500Z,992.10
2023-01-05T04:43:25.493Z,992.09
2023-01-05T04:44:25.487Z,992.07
2023-01-05T04:45:25.538Z,992.04
2023-01-05T04:46:25.494Z,992.04
2023-01-05T04:47:25.467Z,992.12
2023-01-05T04:48:25.476Z,992.07
2023-01-05T04:49:25.440Z,992.15
2023-01-05T04:50:25.471Z,992.07
2023-01-05T04:51:25.442Z,992.05
2023-01-05T04:52:25.431Z,992.06
2023-01-05T04:53:25.433Z,992.10
2023-01-05T04:54:25.419Z,992.18
2023-01-05T04:55:25.423Z,992.15
2023-01-05T04:56:25.387Z,992.18
2023-01-05T04:57:25.383Z,992.13
2023-01-05T04:58:25.385Z,992.20
2023-01-05T04:59:25.405Z,992.26
2023-01-05T05:00:25.385Z,992.28
2023-01-05T05:01:25.410Z,992.25
2023-01-05T05:02:25.517Z,992.23
2023-01-05T05:03:31.085Z,992.19
2023-01-05T05:04:26.332Z,992.23
2023-01-05T05:05:25.356Z,992.17
2023-01-05T05:06:25.302Z,992.19
2023-01-05T05:07:26.327Z,992.10
2023-01-05T05:08:25.296Z,992.12
2023-01-05T05:09:25.301Z,992.09
2023-01-05T05:10:25.314Z,992.05
2023-01-05T05:11:25.272Z,992.07
2023-01-05T05:12:25.266Z,992.02
2023-01-05T05:13:25.266Z,992.10
2023-01-05T05:14:25.248Z,992.05
2023-01-05T05:15:25.242Z,992.13
2023-01-05T05:16:25.273Z,992.12
2023-01-05T05:17:25.229Z,992.15
2023-01-05T05:18:25.228Z,992.21
2023-01-05T05:19:25.216Z,992.17
2023-01-05T05:20:25.204Z,992.21
2023-01-05T05:21:25.220Z,992.24
2023-01-05T05:22:25.187Z,992.29
2023-01-05T05:23:25.177Z,992.20
2023-01-05T05:24:25.165Z,992.23
2023-01-05T05:25:25.164Z,992.23
2023-01-05T05:26:25.182Z,992.22
2023-01-05T05:27:25.145Z,992.24
2023-01-05T05:28:25.144Z,992.32
2023-01-05T05:29:25.133Z,992.28
2023-01-05T05:30:25.120Z,992.27
2023-01-05T05:31:25.183Z,992.30
2023-01-05T05:32:25.110Z,992.33
2023-01-05T05:33:25.107Z,992.34
2023-01-05T05:34:25.094Z,992.35
2023-01-05T05:35:25.087Z,992.39
2023-01-05T05:36:25.094Z,992.29
2023-01-05T05:37:25.062Z,992.31
2023-01-05T05:38:25.062Z,992.37
2023-01-05T05:39:25.157Z,992.35
2023-01-05T05:40:25.039Z,992.39
2023-01-05T05:41:25.056Z,992.29
2023-01-05T05:42:25.023Z,992.26
2023-01-05T05:43:25.009Z,992.27
2023-01-05T05:44:25.008Z,992.35
2023-01-05T05:45:25.003Z,992.27
2023-01-05T05:46:25.037Z,992.29
2023-01-05T05:47:24.994Z,992.31
2023-01-05T05:48:24.972Z,992.34
2023-01-05T05:49:24.963Z,992.34
2023-01-05T05:50:24.974Z,992.30
2023-01-05T05:51:24.976Z,992.44
2023-01-05T05:52:24.937Z,992.46
2023-01-05T05:53:24.932Z,992.50
2023-01-05T05:54:24.927Z,992.50
2023-01-05T05:55:24.927Z,992.47
2023-01-05T05:56:24.928Z,992.51
2023-01-05T05:57:24.902Z,992.45
2023-01-05T05:58:24.894Z,992.49
2023-01-05T05:59:24.908Z,992.56
2023-01-05T06:00:24.881Z,992.55
2023-01-05T06:01:24.924Z,992.53
2023-01-05T06:02:24.913Z,992.51
2023-01-05T06:03:24.884Z,992.55
2023-01-05T06:04:24.848Z,992.58
2023-01-05T06:05:24.846Z,992.62
2023-01-05T06:06:24.855Z,992.61
2023-01-05T06:07:24.823Z,992.59
2023-01-05T06:08:24.813Z,992.65
2023-01-05T06:09:24.836Z,992.70
2023-01-05T06:10:24.798Z,992.72
2023-01-05T06:11:24.836Z,992.75
2023-01-05T06:12:24.785Z,992.74
2023-01-05T06:13:24.776Z,992.76
2023-01-05T06:14:24.766Z,992.82
2023-01-05T06:15:24.761Z,992.83
2023-01-05T06:16:24.802Z,992.85
2023-01-05T06:17:24.747Z,992.88
2023-01-05T06:18:24.736Z,992.86
2023-01-05T06:19:24.731Z,992.84
2023-01-05T06:20:24.733Z,992.83
2023-01-05T06:21:24.740Z,992.77
2023-01-05T06:22:24.708Z,992.77
2023-01-05T06:23:24.699Z,992.76
2023-01-05T06:24:24.696Z,992.74
2023-01-05T06:25:24.681Z,992.88
2023-01-05T06:26:24.694Z,992.84
2023-01-05T06:27:24.676Z,992.72
2023-01-05T06:28:24.661Z,992.80
2023-01-05T06:29:24.649Z,992.85
2023-01-05T06:30:24.660Z,992.87
2023-01-05T06:31:24.702Z,992.77
2023-01-05T06:32:24.632Z,992.88
2023-01-05T06:33:24.631Z,993.00
2023-01-05T06:34:24.612Z,992.92
2023-01-05T06:35:24.610Z,992.95
2023-01-05T06:36:24.632Z,993.00
2023-01-05T06:37:24.594Z,992.98
2023-01-05T06:38:24.582Z,992.99
2023-01-05T06:39:24.577Z,992.93
2023-01-05T06:40:24.571Z,992.99
2023-01-05T06:41:24.565Z,992.98
2023-01-05T06:42:24.596Z,993.02
2023-01-05T06:43:24.558Z,993.04
2023-01-05T06:44:24.537Z,993.05
2023-01-05T06:45:24.550Z,993.09
2023-01-05T06:46:24.559Z,993.09
2023-01-05T06:47:24.541Z,993.11
2023-01-05T06:48:24.506Z,993.10
2023-01-05T06:49:24.502Z,993.15
2023-01-05T06:50:24.491Z,993.14
2023-01-05T06:51:24.488Z,993.21
2023-01-05T06:52:24.504Z,993.15
2023-01-05T06:53:24.466Z,993.12
2023-01-05T06:54:24.472Z,993.18
2023-01-05T06:55:24.456Z,993.29
2023-01-05T06:56:24.447Z,993.26
2023-01-05T06:57:24.463Z,993.29
2023-01-05T06:58:24.427Z,993.27
2023-01-05T06:59:24.423Z,993.24
2023-01-05T07:00:24.417Z,993.21
2023-01-05T07:01:24.499Z,993.16
2023-01-05T07:02:24.428Z,993.22
2023-01-05T07:03:24.389Z,993.33
2023-01-05T07:04:24.404Z,993.25
2023-01-05T07:05:24.385Z,993.18
2023-01-05T07:06:24.373Z,993.22
2023-01-05T07:07:24.390Z,993.29
2023-01-05T07:08:24.357Z,993.34
2023-01-05T07:09:24.361Z,993.29
2023-01-05T07:10:24.337Z,993.25
2023-01-05T07:11:24.332Z,993.25
2023-01-05T07:12:24.550Z,993.35
2023-01-05T07:13:24.331Z,993.32
2023-01-05T07:14:24.307Z,993.32
2023-01-05T07:15:24.304Z,993.35
2023-01-05T07:16:24.333Z,993.40
2023-01-05T07:17:24.310Z,993.42
2023-01-05T07:18:24.294Z,993.49
2023-01-05T07:19:24.262Z,993.53
2023-01-05T07:20:24.263Z,993.55
2023-01-05T07:21:24.309Z,993.59
2023-01-05T07:22:24.273Z,993.55
2023-01-05T07:23:24.238Z,993.59
2023-01-05T07:24:24.233Z,993.55
2023-01-05T07:25:24.238Z,993.55
2023-01-05T07:26:24.217Z,993.68
2023-01-05T07:27:24.235Z,993.66
2023-01-05T07:28:24.699Z,993.67
2023-01-05T07:29:24.197Z,993.69
2023-01-05T07:30:24.192Z,993.67
2023-01-05T07:31:24.211Z,993.75
2023-01-05T07:32:24.200Z,993.79
2023-01-05T07:33:24.176Z,993.75
2023-01-05T07:34:24.155Z,993.75
2023-01-05T07:35:24.152Z,993.83
2023-01-05T07:36:24.147Z,993.81
2023-01-05T07:37:24.166Z,993.88
2023-01-05T07:38:24.136Z,993.90
2023-01-05T07:39:24.126Z,993.90
2023-01-05T07:40:24.111Z,993.88
2023-01-05T07:41:24.109Z,993.85
2023-01-05T07:42:24.121Z,993.91
2023-01-05T07:43:24.100Z,993.98
2023-01-05T07:44:24.081Z,993.97
2023-01-05T07:45:24.198Z,993.98
2023-01-05T07:46:24.126Z,994.01
2023-01-05T07:47:24.090Z,994.02
2023-01-05T07:48:24.054Z,994.00
2023-01-05T07:49:24.044Z,994.08
2023-01-05T07:50:24.048Z,994.02
2023-01-05T07:51:24.039Z,993.99
2023-01-05T07:52:24.043Z,994.00
2023-01-05T07:53:24.013Z,994.02
2023-01-05T07:54:24.014Z,994.03
2023-01-05T07:55:23.997Z,994.02
2023-01-05T07:56:23.982Z,994.05
2023-01-05T07:57:24.001Z,994.11
2023-01-05T07:58:23.978Z,994.12
2023-01-05T07:59:23.963Z,994.13
2023-01-05T08:00:23.969Z,994.10
2023-01-05T08:01:24.113Z,994.12
2023-01-05T08:02:24.050Z,994.15
2023-01-05T08:03:23.967Z,994.19
2023-01-05T08:04:23.996Z,994.20
2023-01-05T08:05:23.913Z,994.16
2023-01-05T08:06:23.907Z,994.22
2023-01-05T08:07:23.924Z,994.22
2023-01-05T08:08:24.677Z,994.23
2023-01-05T08:09:24.886Z,994.31
2023-01-05T08:10:23.887Z,994.27
2023-01-05T08:11:23.873Z,994.31
2023-01-05T08:12:23.891Z,994.35
2023-01-05T08:13:23.959Z,994.36
2023-01-05T08:14:23.847Z,994.35
2023-01-05T08:15:23.841Z,994.41
2023-01-05T08:16:23.893Z,994.45
2023-01-05T08:17:23.855Z,994.43
2023-01-05T08:18:23.815Z,994.39
2023-01-05T08:19:23.809Z,994.36
2023-01-05T08:20:23.793Z,994.50
2023-01-05T08:21:24.793Z,994.44
2023-01-05T08:22:23.809Z,994.55
2023-01-05T08:23:25.622Z,994.42
2023-01-05T08:24:23.766Z,994.50
2023-01-05T08:25:23.761Z,994.47
2023-01-05T08:26:23.794Z,994.49
2023-01-05T08:27:23.847Z,994.46
2023-01-05T08:28:24.649Z,994.58
2023-01-05T08:29:23.734Z,994.56
2023-01-05T08:30:23.728Z,994.49
2023-01-05T08:31:23.775Z,994.51
2023-01-05T08:32:23.728Z,994.50
2023-01-05T08:33:23.697Z,994.45
2023-01-05T08:34:23.690Z,994.48
2023-01-05T08:35:23.688Z,994.52
2023-01-05T08:36:23.669Z,994.49
2023-01-05T08:37:23.695Z,994.56
2023-01-05T08:38:23.753Z,994.56
2023-01-05T08:39:23.647Z,994.62
2023-01-05T08:40:23.668Z,994.60
2023-01-05T08:41:23.639Z,994.66
2023-01-05T08:42:23.670Z,994.63
2023-01-05T08:43:23.627Z,994.56
2023-01-05T08:44:23.610Z,994.62
2023-01-05T08:45:23.598Z,994.60
2023-01-05T08:46:24.681Z,994.58
2023-01-05T08:47:28.049Z,994.65
2023-01-05T08:48:24.579Z,994.66
2023-01-05T08:49:23.570Z,994.53
2023-01-05T08:50:23.627Z,994.65
2023-01-05T08:51:23.549Z,994.59
2023-01-05T08:52:23.561Z,994.59
2023-01-05T08:53:23.598Z,994.65
2023-01-05T08:54:23.532Z,994.69
2023-01-05T08:55:23.521Z,994.70
2023-01-05T08:56:23.523Z,994.59
2023-01-05T08:57:23.516Z,994.63
2023-01-05T08:58:23.523Z,994.60
2023-01-05T08:59:23.493Z,994.57
2023-01-05T09:00:23.563Z,994.62
2023-01-05T09:01:23.548Z,994.67
2023-01-05T09:02:25.774Z,994.63
2023-01-05T09:03:24.561Z,994.65
2023-01-05T09:04:23.451Z,994.66
2023-01-05T09:05:23.463Z,994.67
2023-01-05T09:06:23.441Z,994.61
2023-01-05T09:07:23.425Z,994.67
2023-01-05T09:08:23.440Z,994.71
2023-01-05T09:09:23.410Z,994.69
2023-01-05T09:10:23.406Z,994.78
2023-01-05T09:11:23.404Z,994.76
2023-01-05T09:12:25.772Z,994.70
2023-01-05T09:13:24.409Z,994.74
2023-01-05T09:14:23.380Z,994.75
2023-01-05T09:15:23.364Z,994.75
2023-01-05T09:17:25.388Z,994.80
2023-01-05T09:18:23.370Z,994.91
2023-01-05T09:19:24.343Z,994.85
2023-01-05T09:20:23.330Z,994.94
2023-01-05T09:21:23.317Z,994.93
2023-01-05T09:22:23.321Z,994.95
2023-01-05T09:23:23.328Z,994.95
2023-01-05T09:24:23.298Z,994.94
2023-01-05T09:25:23.291Z,994.97
2023-01-05T09:26:23.294Z,994.87
2023-01-05T09:27:23.277Z,994.89
2023-01-05T09:28:23.360Z,994.98
2023-01-05T09:29:23.263Z,994.94
2023-01-05T09:30:23.269Z,995.07
2023-01-05T09:31:23.285Z,995.11
2023-01-05T09:32:23.247Z,995.05
2023-01-05T09:33:23.257Z,995.06
2023-01-05T09:34:23.220Z,995.11
2023-01-05T09:35:23.219Z,995.03
2023-01-05T09:36:23.210Z,995.11
2023-01-05T09:37:23.209Z,995.05
2023-01-05T09:38:23.255Z,995.07
2023-01-05T09:39:23.257Z,995.10
2023-01-05T09:40:23.191Z,995.08
2023-01-05T09:41:23.168Z,995.12
2023-01-05T09:42:23.162Z,995.09
2023-01-05T09:43:23.181Z,995.11
2023-01-05T09:44:23.155Z,995.16
2023-01-05T09:45:23.142Z,995.18
2023-01-05T09:46:23.199Z,995.20
2023-01-05T09:47:23.121Z,995.29
2023-01-05T09:48:23.276Z,995.20
2023-01-05T09:49:23.113Z,995.19
2023-01-05T09:50:23.100Z,995.17
2023-01-05T09:51:23.094Z,995.14
2023-01-05T09:52:23.079Z,995.17
2023-01-05T09:53:23.105Z,995.20
2023-01-05T09:54:23.069Z,995.26
2023-01-05T09:55:23.142Z,995.24
2023-01-05T09:56:58.851Z,995.24
2023-01-05T09:57:25.043Z,995.31
2023-01-05T09:58:28.053Z,995.27
2023-01-05T09:59:25.027Z,995.30
2023-01-05T10:00:23.028Z,995.33
2023-01-05T10:01:23.035Z,995.29
2023-01-05T10:02:23.007Z,995.41
2023-01-05T10:04:01.736Z,995.42
2023-01-05T10:04:30.381Z,995.40
2023-01-05T10:05:25.099Z,995.38
2023-01-05T10:06:22.981Z,995.35
2023-01-05T10:07:22.959Z,995.36
2023-01-05T10:08:22.997Z,995.32
2023-01-05T10:09:22.946Z,995.35
2023-01-05T10:10:28.332Z,995.39
2023-01-05T10:11:25.004Z,995.35
2023-01-05T10:12:22.919Z,995.35
2023-01-05T10:13:22.990Z,995.30
2023-01-05T10:14:22.904Z,995.25
2023-01-05T10:15:22.907Z,995.33
2023-01-05T10:16:29.021Z,995.31
2023-01-05T10:17:42.372Z,995.39
2023-01-05T10:18:25.000Z,995.41
2023-01-05T10:19:22.862Z,995.37
2023-01-05T10:20:22.856Z,995.44
2023-01-05T10:21:22.857Z,995.40
2023-01-05T10:22:22.861Z,995.38
2023-01-05T10:23:22.995Z,995.44
2023-01-05T10:24:22.835Z,995.42
2023-01-05T10:25:22.819Z,995.44
2023-01-05T10:26:22.814Z,995.47
2023-01-05T10:27:25.665Z,995.45
2023-01-05T10:28:23.888Z,995.45
2023-01-05T10:29:22.807Z,995.39
2023-01-05T10:30:22.798Z,995.37
2023-01-05T10:31:22.816Z,995.35
2023-01-05T10:32:22.779Z,995.36
2023-01-05T10:33:27.792Z,995.30
2023-01-05T10:34:24.750Z,995.32
2023-01-05T10:35:59.071Z,995.36
2023-01-05T10:36:57.697Z,995.25
2023-01-05T10:37:24.730Z,995.23
2023-01-05T10:38:23.014Z,995.29
2023-01-05T10:39:22.711Z,995.32
2023-01-05T10:40:22.702Z,995.31
2023-01-05T10:41:22.703Z,995.27
2023-01-05T10:42:22.694Z,995.28
2023-01-05T10:43:22.787Z,995.27
2023-01-05T10:44:22.680Z,995.39
2023-01-05T10:45:22.680Z,995.35
2023-01-05T10:46:35.351Z,995.30
2023-01-05T10:47:24.688Z,995.27
2023-01-05T10:48:22.721Z,995.34
2023-01-05T10:49:22.990Z,995.27
2023-01-05T10:50:22.623Z,995.39
2023-01-05T10:51:22.615Z,995.29
2023-01-05T10:52:22.622Z,995.30
2023-01-05T10:53:22.604Z,995.41
2023-01-05T10:54:22.647Z,995.37
2023-01-05T10:55:22.588Z,995.52
2023-01-05T10:56:22.582Z,995.48
2023-01-05T10:57:22.573Z,995.53
2023-01-05T10:58:22.647Z,995.58
2023-01-05T10:59:22.750Z,995.59
2023-01-05T11:00:22.549Z,995.60
2023-01-05T11:01:22.654Z,995.56
2023-01-05T11:02:22.714Z,995.63
2023-01-05T11:03:39.814Z,995.67
2023-01-05T11:04:33.302Z,995.63
2023-01-05T11:05:24.543Z,995.72
2023-01-05T11:06:22.504Z,995.64
2023-01-05T11:07:22.490Z,995.65
2023-01-05T11:08:22.518Z,995.59
2023-01-05T11:09:22.890Z,995.60
2023-01-05T11:10:22.540Z,995.64
2023-01-05T11:11:22.472Z,995.53
2023-01-05T11:12:22.462Z,995.62
2023-01-05T11:13:22.468Z,995.50
2023-01-05T11:14:22.466Z,995.62
2023-01-05T11:15:22.511Z,995.56
2023-01-05T11:16:22.524Z,995.56
2023-01-05T11:17:22.430Z,995.62
2023-01-05T11:18:22.570Z,995.66
2023-01-05T11:19:22.425Z,995.60
2023-01-05T11:20:22.392Z,995.62
2023-01-05T11:21:22.414Z,995.68
2023-01-05T11:22:22.403Z,995.67
2023-01-05T11:23:22.368Z,995.72
2023-01-05T11:24:22.389Z,995.72
2023-01-05T11:25:22.345Z,995.69
2023-01-05T11:26:22.366Z,995.57
2023-01-05T11:27:22.348Z,995.56
2023-01-05T11:28:22.329Z,995.66
2023-01-05T11:29:22.363Z,995.63
2023-01-05T11:30:22.311Z,995.66
2023-01-05T11:31:22.455Z,995.67
2023-01-05T11:32:22.291Z,995.65
2023-01-05T11:33:25.280Z,995.66
2023-01-05T11:34:23.310Z,995.57
2023-01-05T11:35:22.270Z,995.60
2023-01-05T11:36:22.262Z,995.67
2023-01-05T11:37:22.251Z,995.72
2023-01-05T11:38:22.255Z,995.65
2023-01-05T11:39:22.265Z,995.72
2023-01-05T11:40:22.236Z,995.64
2023-01-05T11:41:22.223Z,995.68
2023-01-05T11:42:25.673Z,995.69
2023-01-05T11:43:23.210Z,995.72
2023-01-05T11:44:22.194Z,995.78
2023-01-05T11:45:22.231Z,995.80
2023-01-05T11:46:22.221Z,995.74
2023-01-05T11:47:22.249Z,995.76
2023-01-05T11:48:22.162Z,995.65
2023-01-05T11:49:22.156Z,995.63
2023-01-05T11:50:22.193Z,995.64
2023-01-05T11:51:27.590Z,995.59
2023-01-05T11:52:24.125Z,995.60
2023-01-05T11:53:22.126Z,995.58
2023-01-05T11:54:22.117Z,995.54
2023-01-05T11:55:22.141Z,995.60
2023-01-05T11:56:22.096Z,995.53
2023-01-05T11:57:22.091Z,995.59
2023-01-05T11:58:22.088Z,995.62
2023-01-05T11:59:22.077Z,995.74
2023-01-05T12:00:22.123Z,995.75
2023-01-05T12:01:22.107Z,995.69
2023-01-05T12:02:22.076Z,995.84
2023-01-05T12:03:22.041Z,995.79
2023-01-05T12:04:22.111Z,995.73
2023-01-05T12:05:22.050Z,995.80
2023-01-05T12:06:22.016Z,995.79
2023-01-05T12:07:22.006Z,995.87
2023-01-05T12:08:22.003Z,995.81
2023-01-05T12:09:22.047Z,995.93
2023-01-05T12:10:22.013Z,995.89
2023-01-05T12:11:22.013Z,995.88
2023-01-05T12:12:21.969Z,995.92
2023-01-05T12:13:21.964Z,995.87
2023-01-05T12:14:21.962Z,995.90
2023-01-05T12:15:21.976Z,995.84
2023-01-05T12:16:21.965Z,995.82
2023-01-05T12:17:21.933Z,995.77
2023-01-05T12:18:21.924Z,995.77
2023-01-05T12:19:21.993Z,995.82
2023-01-05T12:20:21.938Z,995.77
2023-01-05T12:21:21.900Z,995.80
2023-01-05T12:22:21.891Z,995.80
2023-01-05T12:23:21.889Z,995.74
2023-01-05T12:24:21.878Z,995.75
2023-01-05T12:25:21.905Z,995.71
2023-01-05T12:26:21.867Z,995.85
2023-01-05T12:27:22.432Z,995.73
2023-01-05T12:28:39.650Z,995.74
2023-01-05T12:34:23.868Z,995.75